Time;durP1;ratioP1;P1;durP2;ratioP2;P2;SDS_P1;SDS_P2;PMS_P1;PMS_P2;Temp;Humidity;BMP_temperature;BMP_pressure;BME280_temperature;BME280_humidity;BME280_pressure;Samples;Min_cycle;Max_cycle;Signal;HPM_P1;HPM_P2
2023/08/06 00:02:06;;;;;;;5.75;4.78;;;;;;;14.67;85.13;100768.38;7402286;19;19918;-77
2023/08/06 00:04:34;;;;;;;6.75;4.43;;;;;;;14.66;85.38;100765.91;7403674;19;19922;-77
2023/08/06 00:07:03;;;;;;;5.65;4.05;;;;;;;14.64;85.34;100763.38;7402032;19;20266;-76
2023/08/06 00:09:31;;;;;;;6.00;4.13;;;;;;;14.62;85.51;100762.78;7403785;19;19931;-77
2023/08/06 00:12:00;;;;;;;7.28;5.25;;;;;;;14.59;85.83;100762.31;7403533;19;19919;-76
2023/08/06 00:14:31;;;;;;;6.88;4.88;;;;;;;14.60;85.48;100758.56;7403141;19;19970;-76
2023/08/06 00:17:00;;;;;;;7.20;5.43;;;;;;;14.59;85.87;100754.19;7402826;19;19911;-76
2023/08/06 00:19:28;;;;;;;8.90;6.35;;;;;;;14.60;85.71;100759.41;7402280;19;19926;-77
2023/08/06 00:21:57;;;;;;;9.20;5.15;;;;;;;14.59;85.85;100763.16;7402457;19;20641;-76
2023/08/06 00:24:25;;;;;;;8.07;4.68;;;;;;;14.58;85.63;100764.22;7401800;19;19931;-76
2023/08/06 00:26:54;;;;;;;8.82;5.03;;;;;;;14.58;85.77;100763.38;7402664;19;19923;-76
2023/08/06 00:29:23;;;;;;;7.68;4.53;;;;;;;14.57;85.63;100759.00;7402270;19;20012;-76
2023/08/06 00:31:54;;;;;;;7.32;4.82;;;;;;;14.57;85.99;100754.41;7402102;19;19911;-76
2023/08/06 00:34:23;;;;;;;5.72;4.95;;;;;;;14.57;85.96;100759.84;7401927;19;19918;-76
2023/08/06 00:36:53;;;;;;;6.95;5.03;;;;;;;14.56;85.92;100760.03;7401326;19;19919;-76
2023/08/06 00:39:22;;;;;;;6.57;4.60;;;;;;;14.58;85.91;100760.69;7401836;19;19918;-76
2023/08/06 00:41:50;;;;;;;6.63;4.68;;;;;;;14.60;86.27;100758.56;7400537;19;19919;-76
2023/08/06 00:44:19;;;;;;;10.65;5.30;;;;;;;14.60;86.24;100754.00;7401258;19;20329;-76
2023/08/06 00:46:47;;;;;;;8.25;5.10;;;;;;;14.59;85.87;100759.59;7399834;19;19926;-77
2023/08/06 00:49:19;;;;;;;6.38;4.95;;;;;;;14.56;86.13;100758.16;7401324;19;19938;-76
2023/08/06 00:51:47;;;;;;;7.90;5.28;;;;;;;14.58;86.04;100761.50;7401502;19;19927;-76
2023/08/06 00:54:17;;;;;;;10.57;6.05;;;;;;;14.58;86.38;100752.53;7402298;19;19918;-77
2023/08/06 00:56:46;;;;;;;6.50;4.93;;;;;;;14.57;86.21;100753.56;7402269;19;20595;-77
2023/08/06 00:59:15;;;;;;;7.47;5.45;;;;;;;14.57;86.30;100756.28;7402889;19;19943;-76
2023/08/06 01:01:44;;;;;;;8.70;5.65;;;;;;;14.55;86.41;100751.06;7401868;19;19915;-77
2023/08/06 01:04:14;;;;;;;8.35;5.20;;;;;;;14.53;86.23;100751.28;7401709;19;19926;-77
2023/08/06 01:06:50;;;;;;;7.68;5.60;;;;;;;14.50;86.22;100759.81;7405806;19;20341;-76
2023/08/06 01:09:30;;;;;;;8.57;4.85;;;;;;;14.49;86.73;100758.16;7401334;19;19922;-77
2023/08/06 01:12:07;;;;;;;6.68;4.93;;;;;;;14.49;86.48;100755.44;7401766;19;20230;-76
2023/08/06 01:14:45;;;;;;;7.85;5.72;;;;;;;14.49;86.54;100760.88;7401046;19;19918;-76
2023/08/06 01:17:15;;;;;;;7.97;5.00;;;;;;;14.49;86.34;100758.16;7401872;19;19928;-76
2023/08/06 01:19:44;;;;;;;9.18;4.85;;;;;;;14.48;86.30;100755.66;7400848;19;20346;-77
2023/08/06 01:22:15;;;;;;;6.10;4.60;;;;;;;14.49;86.38;100751.91;7400113;19;19922;-77
2023/08/06 01:24:49;;;;;;;8.07;5.78;;;;;;;14.48;86.41;100761.91;7401540;19;20365;-77
2023/08/06 01:27:21;;;;;;;8.40;6.10;;;;;;;14.49;86.12;100755.44;7400932;19;19919;-77
2023/08/06 01:29:59;;;;;;;11.00;6.63;;;;;;;14.47;86.30;100756.69;7401700;19;19950;-77
2023/08/06 01:32:29;;;;;;;8.30;5.57;;;;;;;14.49;86.43;100758.16;7400997;19;19918;-77
2023/08/06 01:34:59;;;;;;;6.85;4.85;;;;;;;14.51;86.56;100755.22;7400873;19;19921;-77
2023/08/06 01:37:31;;;;;;;7.78;5.30;;;;;;;14.50;86.65;100753.53;7400743;19;19918;-77
2023/08/06 01:40:00;;;;;;;8.65;5.53;;;;;;;14.50;86.52;100748.13;7400918;19;19919;-77
2023/08/06 01:42:28;;;;;;;8.73;6.10;;;;;;;14.50;86.65;100737.28;7399691;19;19957;-76
2023/08/06 01:44:57;;;;;;;8.13;5.90;;;;;;;14.50;86.77;100740.84;7399497;19;19923;-77
2023/08/06 01:47:26;;;;;;;8.40;5.72;;;;;;;14.50;86.75;100734.56;7399467;19;19930;-77
2023/08/06 01:49:54;;;;;;;8.13;6.00;;;;;;;14.49;86.85;100736.47;7399476;19;19914;-77
2023/08/06 01:52:23;;;;;;;9.35;5.28;;;;;;;14.50;86.90;100726.44;7400081;19;19926;-77
2023/08/06 01:54:57;;;;;;;11.00;6.63;;;;;;;14.50;86.90;100721.84;7398477;19;19919;-77
2023/08/06 01:57:26;;;;;;;9.85;5.35;;;;;;;14.49;86.97;100720.22;7401008;19;19918;-77
2023/08/06 01:59:54;;;;;;;8.30;5.22;;;;;;;14.48;87.04;100723.97;7400567;19;20348;-77
2023/08/06 02:02:23;;;;;;;7.75;6.07;;;;;;;14.48;86.71;100715.81;7399278;19;19922;-76
2023/08/06 02:04:52;;;;;;;10.50;6.35;;;;;;;14.47;86.90;100716.00;7401928;19;19922;-77
2023/08/06 02:07:20;;;;;;;8.20;4.90;;;;;;;14.46;86.78;100709.75;7398074;19;19945;-76
2023/08/06 02:09:49;;;;;;;8.48;5.18;;;;;;;14.47;87.00;100708.72;7400014;19;20313;-77
2023/08/06 02:12:20;;;;;;;12.02;5.05;;;;;;;14.49;87.17;100705.81;7399491;19;19955;-76
2023/08/06 02:14:48;;;;;;;11.73;6.47;;;;;;;14.48;87.30;100713.13;7398969;19;19926;-77
2023/08/06 02:17:17;;;;;;;10.15;5.88;;;;;;;14.49;87.07;100712.06;7399417;19;19927;-77
2023/08/06 02:19:45;;;;;;;9.45;4.88;;;;;;;14.51;86.82;100706.44;7399433;19;19948;-77
2023/08/06 02:22:14;;;;;;;8.27;5.18;;;;;;;14.51;86.78;100709.97;7401456;19;19972;-77
2023/08/06 02:24:43;;;;;;;8.13;4.82;;;;;;;14.52;86.98;100708.94;7405851;19;19919;-77
2023/08/06 02:27:11;;;;;;;6.07;4.90;;;;;;;14.53;87.02;100702.50;7405409;19;20421;-77
2023/08/06 02:29:43;;;;;;;6.35;4.82;;;;;;;14.54;87.11;100698.72;7405835;19;20341;-78
2023/08/06 02:32:12;;;;;;;6.68;4.90;;;;;;;14.53;87.18;100704.38;7405889;19;19925;-77
2023/08/06 02:34:41;;;;;;;7.25;5.35;;;;;;;14.53;87.16;100705.19;7405396;19;19947;-77
2023/08/06 02:37:10;;;;;;;8.60;5.72;;;;;;;14.54;87.24;100706.00;7405473;19;20569;-78
2023/08/06 02:39:39;;;;;;;6.90;4.65;;;;;;;14.53;87.33;100698.94;7405075;19;20502;-77
2023/08/06 02:42:09;;;;;;;6.07;4.82;;;;;;;14.54;87.15;100706.84;7404930;19;19951;-77
2023/08/06 02:44:37;;;;;;;8.98;5.13;;;;;;;14.53;87.34;100698.94;7405459;19;19915;-77
2023/08/06 02:47:09;;;;;;;6.28;4.88;;;;;;;14.53;87.06;100693.53;7402613;19;19926;-77
2023/08/06 02:49:37;;;;;;;7.97;5.13;;;;;;;14.52;87.29;100692.69;7404770;19;19919;-78
2023/08/06 02:52:07;;;;;;;6.68;4.47;;;;;;;14.53;87.55;100694.34;7404882;19;20345;-77
2023/08/06 02:54:35;;;;;;;9.55;5.00;;;;;;;14.51;87.10;100685.59;7404894;19;20357;-77
2023/08/06 02:57:04;;;;;;;8.70;5.95;;;;;;;14.50;87.13;100681.19;7404615;19;19926;-77
2023/08/06 02:59:33;;;;;;;10.15;6.25;;;;;;;14.51;87.09;100677.44;7404405;19;19922;-78
2023/08/06 03:02:01;;;;;;;6.75;4.63;;;;;;;14.50;87.18;100667.66;7404298;19;19958;-78
2023/08/06 03:04:32;;;;;;;7.15;4.18;;;;;;;14.49;87.20;100668.72;7404019;19;20345;-77
2023/08/06 03:07:01;;;;;;;7.90;4.85;;;;;;;14.49;87.79;100670.59;7404112;19;19948;-77
2023/08/06 03:09:30;;;;;;;8.00;5.47;;;;;;;14.48;87.62;100667.03;7406573;19;19915;-77
2023/08/06 03:11:58;;;;;;;8.15;4.93;;;;;;;14.48;87.67;100663.47;7404341;19;19915;-77
2023/08/06 03:14:27;;;;;;;7.32;4.50;;;;;;;14.48;87.51;100666.19;7404077;19;19926;-77
2023/08/06 03:16:55;;;;;;;6.88;4.75;;;;;;;14.47;87.84;100667.22;7403578;19;19923;-77
2023/08/06 03:19:24;;;;;;;10.55;5.60;;;;;;;14.46;87.59;100665.56;7403872;19;19939;-77
2023/08/06 03:21:55;;;;;;;6.95;4.65;;;;;;;14.47;87.36;100664.53;7403887;19;19914;-77
2023/08/06 03:24:24;;;;;;;12.45;5.60;;;;;;;14.47;87.55;100667.22;7401980;19;19943;-77
2023/08/06 03:26:52;;;;;;;6.15;4.85;;;;;;;14.46;87.79;100671.81;7403499;19;19915;-77
2023/08/06 03:29:22;;;;;;;8.13;5.53;;;;;;;14.44;87.43;100667.66;7403278;19;19943;-77
2023/08/06 03:31:50;;;;;;;5.88;4.53;;;;;;;14.44;87.29;100663.06;7403525;19;19918;-77
2023/08/06 03:34:20;;;;;;;7.68;5.13;;;;;;;14.43;87.32;100655.13;7403300;19;20344;-77
2023/08/06 03:36:48;;;;;;;7.22;4.82;;;;;;;14.40;87.58;100650.97;7402943;19;20292;-77
2023/08/06 03:39:19;;;;;;;7.72;4.95;;;;;;;14.41;87.32;100649.09;7403257;19;19923;-77
2023/08/06 03:41:48;;;;;;;10.32;5.60;;;;;;;14.39;87.75;100652.00;7403043;19;20335;-77
2023/08/06 03:44:16;;;;;;;8.23;4.93;;;;;;;14.39;87.87;100654.72;7401589;19;19918;-77
2023/08/06 03:46:45;;;;;;;8.55;5.25;;;;;;;14.39;87.74;100651.16;7400982;19;19940;-77
2023/08/06 03:49:14;;;;;;;11.43;5.78;;;;;;;14.38;87.58;100658.47;7402989;19;19943;-77
2023/08/06 03:51:42;;;;;;;8.93;4.85;;;;;;;14.37;87.85;100654.06;7404415;19;19918;-78
2023/08/06 03:54:11;;;;;;;8.85;5.45;;;;;;;14.38;87.74;100652.22;7404027;19;20288;-77
2023/08/06 03:56:42;;;;;;;8.07;5.40;;;;;;;14.38;87.69;100653.03;7403794;19;20356;-77
2023/08/06 03:59:11;;;;;;;6.68;4.28;;;;;;;14.38;88.10;100653.03;7403194;19;19914;-76
2023/08/06 04:01:39;;;;;;;8.88;4.78;;;;;;;14.38;88.02;100646.78;7403749;19;20622;-77
2023/08/06 04:04:08;;;;;;;8.52;4.80;;;;;;;14.38;87.68;100644.06;7403099;19;19940;-77
2023/08/06 04:06:36;;;;;;;10.60;5.25;;;;;;;14.38;87.94;100642.19;7402638;19;19919;-78
2023/08/06 04:09:05;;;;;;;8.35;5.07;;;;;;;14.40;87.93;100639.28;7402464;19;19922;-78
2023/08/06 04:11:34;;;;;;;6.40;5.13;;;;;;;14.41;88.13;100652.63;7402258;19;20345;-77
2023/08/06 04:14:05;;;;;;;8.48;4.95;;;;;;;14.42;87.88;100648.88;7401761;19;19951;-77
2023/08/06 04:16:33;;;;;;;8.48;4.43;;;;;;;14.42;87.83;100642.63;7402214;19;20529;-77
2023/08/06 04:19:02;;;;;;;10.25;4.65;;;;;;;14.43;87.69;100644.28;7402091;19;19915;-77
2023/08/06 04:21:30;;;;;;;8.10;5.00;;;;;;;14.43;87.96;100639.72;7401917;19;19939;-77
2023/08/06 04:23:59;;;;;;;7.05;4.25;;;;;;;14.43;87.87;100634.28;7401088;19;19960;-77
2023/08/06 04:26:28;;;;;;;6.88;4.97;;;;;;;14.44;87.95;100640.53;7402008;19;19931;-77
2023/08/06 04:28:56;;;;;;;7.82;4.68;;;;;;;14.44;87.95;100632.41;7402181;19;19939;-77
2023/08/06 04:31:27;;;;;;;9.48;4.65;;;;;;;14.42;88.00;100621.78;7402250;19;19915;-77
2023/08/06 04:33:56;;;;;;;7.07;4.65;;;;;;;14.41;88.16;100628.22;7401792;19;20383;-77
2023/08/06 04:36:25;;;;;;;8.07;4.63;;;;;;;14.42;88.10;100621.78;7401923;19;20279;-77
2023/08/06 04:38:55;;;;;;;5.97;4.68;;;;;;;14.44;87.89;100624.28;7401745;19;19939;-77
2023/08/06 04:41:23;;;;;;;8.85;5.05;;;;;;;14.44;87.73;100614.28;7401473;19;19911;-77
2023/08/06 04:43:52;;;;;;;7.80;4.45;;;;;;;14.44;87.93;100608.03;7400468;19;19914;-78
2023/08/06 04:46:20;;;;;;;5.57;4.30;;;;;;;14.46;87.83;100616.75;7399042;19;19923;-77
2023/08/06 04:48:51;;;;;;;6.90;4.78;;;;;;;14.46;88.24;100612.19;7401318;19;19911;-77
2023/08/06 04:51:20;;;;;;;6.72;4.05;;;;;;;14.49;88.31;100617.22;7402139;19;19928;-76
2023/08/06 04:53:49;;;;;;;9.25;5.05;;;;;;;14.51;88.13;100620.53;7401535;19;19910;-77
2023/08/06 04:56:17;;;;;;;6.72;4.72;;;;;;;14.52;88.05;100619.50;7402004;19;19922;-77
2023/08/06 04:58:46;;;;;;;6.63;4.57;;;;;;;14.53;88.43;100623.88;7401442;19;19926;-77
2023/08/06 05:01:14;;;;;;;8.25;4.63;;;;;;;14.56;88.04;100630.75;7402955;19;19915;-78
2023/08/06 05:03:43;;;;;;;7.47;5.28;;;;;;;14.56;87.94;100628.03;7402997;19;19915;-78
2023/08/06 05:06:14;;;;;;;7.00;4.50;;;;;;;14.60;87.82;100631.16;7403040;19;19914;-78
2023/08/06 05:08:43;;;;;;;7.75;4.32;;;;;;;14.61;88.23;100624.69;7402896;19;19919;-78
2023/08/06 05:11:12;;;;;;;6.43;4.82;;;;;;;14.64;88.01;100621.56;7402449;19;20540;-77
2023/08/06 05:13:40;;;;;;;6.90;5.50;;;;;;;14.67;87.76;100626.59;7402236;19;19911;-78
2023/08/06 05:16:09;;;;;;;9.30;5.40;;;;;;;14.69;88.25;100635.31;7401445;19;19915;-77
2023/08/06 05:18:38;;;;;;;7.20;4.40;;;;;;;14.71;88.05;100633.25;7401953;19;19918;-78
2023/08/06 05:21:07;;;;;;;8.65;5.18;;;;;;;14.71;88.10;100634.06;7402440;19;19911;-78
2023/08/06 05:23:38;;;;;;;8.48;5.00;;;;;;;14.77;87.68;100640.53;7403576;19;19922;-78
2023/08/06 05:26:06;;;;;;;10.07;4.90;;;;;;;14.80;87.39;100640.94;7402725;19;19915;-77
2023/08/06 05:28:35;;;;;;;7.70;4.82;;;;;;;14.81;87.64;100647.19;7400975;19;19946;-77
2023/08/06 05:31:06;;;;;;;7.07;4.90;;;;;;;14.86;87.74;100653.66;7401471;19;19915;-77
2023/08/06 05:33:34;;;;;;;8.65;4.53;;;;;;;14.90;87.79;100645.94;7400666;19;19915;-77
2023/08/06 05:36:03;;;;;;;6.88;4.85;;;;;;;14.92;87.33;100652.84;7400532;19;19930;-78
2023/08/06 05:38:33;;;;;;;10.45;5.20;;;;;;;14.98;87.52;100653.84;7399802;19;19918;-78
2023/08/06 05:41:04;;;;;;;9.18;5.07;;;;;;;15.02;87.58;100654.25;7400174;19;19918;-77
2023/08/06 05:43:32;;;;;;;7.28;4.93;;;;;;;15.05;87.77;100664.72;7400342;19;19918;-77
2023/08/06 05:46:01;;;;;;;6.13;4.60;;;;;;;15.08;87.29;100662.41;7398625;19;19927;-77
2023/08/06 05:48:29;;;;;;;6.25;4.85;;;;;;;15.14;87.50;100669.72;7400232;19;19919;-78
2023/08/06 05:50:58;;;;;;;6.82;4.75;;;;;;;15.22;87.45;100661.34;7399694;19;19922;-77
2023/08/06 05:53:27;;;;;;;6.85;4.80;;;;;;;15.28;87.28;100663.19;7399880;19;19943;-77
2023/08/06 05:55:55;;;;;;;8.13;5.13;;;;;;;15.33;87.25;100679.69;7399660;19;19915;-77
2023/08/06 05:58:29;;;;;;;7.05;4.95;;;;;;;15.39;86.97;100675.28;7406054;19;19926;-78
2023/08/06 06:00:57;;;;;;;8.18;4.38;;;;;;;15.45;86.55;100672.53;7407002;19;20035;-77
2023/08/06 06:03:26;;;;;;;6.03;4.30;;;;;;;15.53;86.86;100671.53;7407371;19;19939;-77
2023/08/06 06:05:54;;;;;;;6.93;4.55;;;;;;;15.56;86.48;100665.66;7407464;19;19914;-77
2023/08/06 06:08:23;;;;;;;7.60;4.97;;;;;;;15.59;86.90;100673.38;7404522;19;20282;-77
2023/08/06 06:10:51;;;;;;;7.13;5.05;;;;;;;15.61;86.68;100673.16;7407252;19;19914;-77
2023/08/06 06:13:20;;;;;;;6.50;4.72;;;;;;;15.65;86.59;100679.84;7407033;19;19981;-77
2023/08/06 06:15:52;;;;;;;9.05;5.45;;;;;;;15.69;86.74;100681.06;7406911;19;19918;-77
2023/08/06 06:18:20;;;;;;;;;;;;;;;15.60;87.24;100677.75;7409433;19;19918;-77
2023/08/06 06:20:48;;;;;;;6.55;4.78;;;;;;;15.73;86.70;100683.13;7407267;19;20496;-77
2023/08/06 06:23:17;;;;;;;6.20;4.78;;;;;;;15.76;86.08;100682.69;7406917;19;19931;-77
2023/08/06 06:25:46;;;;;;;5.63;4.28;;;;;;;15.79;85.77;100689.59;7403788;19;20276;-77
2023/08/06 06:28:14;;;;;;;6.82;4.32;;;;;;;15.78;85.98;100686.06;7406919;19;19906;-77
2023/08/06 06:30:44;;;;;;;7.93;5.65;;;;;;;15.79;86.27;100684.16;7406300;19;19935;-77
2023/08/06 06:33:15;;;;;;;7.30;5.10;;;;;;;15.78;86.22;100691.47;7406162;19;20365;-77
2023/08/06 06:35:44;;;;;;;9.10;4.57;;;;;;;15.79;86.26;100684.16;7406153;19;19918;-77
2023/08/06 06:38:12;;;;;;;8.68;5.00;;;;;;;15.79;86.49;100679.53;7406341;19;19959;-77
2023/08/06 06:40:42;;;;;;;7.50;5.22;;;;;;;15.81;86.96;100693.75;7405999;19;19926;-78
2023/08/06 06:43:10;;;;;;;5.50;4.47;;;;;;;15.83;86.37;100693.56;7406526;19;19915;-77
2023/08/06 06:45:39;;;;;;;5.85;4.80;;;;;;;15.85;86.33;100696.88;7403280;19;19951;-78
2023/08/06 06:48:07;;;;;;;8.25;5.43;;;;;;;15.86;86.34;100695.81;7406183;19;20258;-78
2023/08/06 06:50:39;;;;;;;7.95;5.32;;;;;;;15.90;86.24;100697.06;7405806;19;19919;-77
2023/08/06 06:53:07;;;;;;;8.63;6.03;;;;;;;15.95;86.19;100694.53;7405953;19;19928;-77
2023/08/06 06:55:36;;;;;;;6.20;4.55;;;;;;;15.98;85.21;100702.25;7405730;19;19964;-77
2023/08/06 06:58:04;;;;;;;8.52;5.20;;;;;;;16.03;85.15;100697.00;7405265;19;20400;-77
2023/08/06 07:00:33;;;;;;;8.05;5.78;;;;;;;16.10;85.15;100700.50;7405211;19;19928;-77
2023/08/06 07:03:01;;;;;;;7.88;5.43;;;;;;;16.14;85.35;100698.19;7405686;19;19978;-77
2023/08/06 07:05:30;;;;;;;7.85;5.15;;;;;;;16.19;84.96;100693.78;7403100;19;19943;-77
2023/08/06 07:08:01;;;;;;;6.60;5.32;;;;;;;16.27;84.83;100690.78;7402717;19;19947;-78
2023/08/06 07:10:30;;;;;;;7.18;6.25;;;;;;;16.33;84.44;100692.66;7405108;19;19915;-77
2023/08/06 07:12:59;;;;;;;7.35;5.63;;;;;;;16.38;84.25;100683.00;7405223;19;19922;-77
2023/08/06 07:15:27;;;;;;;7.35;5.75;;;;;;;16.45;83.96;100689.22;7404243;19;19921;-77
2023/08/06 07:17:56;;;;;;;7.20;5.55;;;;;;;16.49;83.21;100687.72;7404818;19;20262;-77
2023/08/06 07:20:24;;;;;;;7.60;6.03;;;;;;;16.55;83.36;100690.41;7404137;19;19944;-77
2023/08/06 07:22:53;;;;;;;7.60;5.50;;;;;;;16.61;82.99;100688.72;7404011;19;19923;-77
2023/08/06 07:25:24;;;;;;;6.85;5.88;;;;;;;16.68;82.51;100689.50;7402145;19;20286;-78
2023/08/06 07:27:53;;;;;;;7.15;5.30;;;;;;;16.76;82.78;100690.06;7404703;19;19914;-77
2023/08/06 07:30:21;;;;;;;6.90;5.60;;;;;;;16.85;82.42;100695.22;7403738;19;19931;-77
2023/08/06 07:32:50;;;;;;;5.97;4.93;;;;;;;16.90;81.48;100692.69;7403697;19;19911;-77
2023/08/06 07:35:19;;;;;;;6.88;5.78;;;;;;;16.94;81.85;100700.16;7404290;19;19915;-77
2023/08/06 07:37:47;;;;;;;5.95;4.97;;;;;;;17.01;81.74;100703.66;7406172;19;19915;-78
2023/08/06 07:40:16;;;;;;;8.07;5.30;;;;;;;17.08;81.86;100695.44;7405401;19;19947;-77
2023/08/06 07:42:48;;;;;;;7.60;6.00;;;;;;;17.16;81.31;100698.72;7403947;19;19926;-77
2023/08/06 07:45:17;;;;;;;8.20;5.25;;;;;;;17.24;81.60;100690.25;7402597;19;19939;-77
2023/08/06 07:47:45;;;;;;;6.10;4.85;;;;;;;17.33;81.25;100690.78;7404758;19;19922;-77
2023/08/06 07:50:15;;;;;;;6.72;5.25;;;;;;;17.46;80.99;100692.53;7404189;19;19911;-77
2023/08/06 07:52:43;;;;;;;5.97;4.68;;;;;;;17.54;79.67;100689.50;7404679;19;20272;-78
2023/08/06 07:55:12;;;;;;;8.75;4.65;;;;;;;17.63;80.50;100685.47;7404424;19;20268;-77
2023/08/06 07:57:40;;;;;;;6.15;4.90;;;;;;;17.73;80.53;100677.59;7403486;19;19922;-77
2023/08/06 08:00:12;;;;;;;5.63;4.63;;;;;;;17.82;80.03;100680.84;7402899;19;19947;-77
2023/08/06 08:02:41;;;;;;;7.50;4.28;;;;;;;17.82;79.16;100673.47;7403134;19;19923;-77
2023/08/06 08:05:10;;;;;;;4.93;4.43;;;;;;;17.84;78.62;100689.59;7401281;19;19943;-77
2023/08/06 08:07:39;;;;;;;5.57;4.63;;;;;;;17.91;79.99;100680.28;7400934;19;20361;-78
2023/08/06 08:10:09;;;;;;;6.05;4.57;;;;;;;17.98;79.64;100682.94;7402617;19;19929;-78
2023/08/06 08:12:38;;;;;;;4.90;3.88;;;;;;;17.97;78.25;100684.81;7402170;19;20016;-77
2023/08/06 08:15:08;;;;;;;8.57;4.05;;;;;;;17.98;79.31;100674.75;7402355;19;19943;-78
2023/08/06 08:17:39;;;;;;;4.90;3.85;;;;;;;18.02;79.14;100679.50;7401405;19;19918;-78
2023/08/06 08:20:09;;;;;;;5.93;3.80;;;;;;;18.11;79.53;100677.28;7399619;19;19923;-78
2023/08/06 08:22:37;;;;;;;8.75;3.08;;;;;;;18.18;78.88;100678.03;7401042;19;20333;-78
2023/08/06 08:25:07;;;;;;;4.15;3.40;;;;;;;18.22;78.34;100675.66;7400102;19;19919;-77
2023/08/06 08:27:36;;;;;;;5.38;3.55;;;;;;;18.26;79.30;100683.16;7400963;19;20309;-79
2023/08/06 08:30:05;;;;;;;5.40;3.25;;;;;;;18.27;78.76;100682.09;7401411;19;19919;-77
2023/08/06 08:32:33;;;;;;;5.03;3.15;;;;;;;18.32;78.70;100679.50;7400724;19;19922;-77
2023/08/06 08:35:05;;;;;;;6.43;3.40;;;;;;;18.36;78.47;100677.97;7400946;19;19929;-76
2023/08/06 08:37:33;;;;;;;5.88;3.08;;;;;;;18.42;78.13;100670.78;7400752;19;19915;-76
2023/08/06 08:40:03;;;;;;;3.45;2.75;;;;;;;18.45;79.81;100673.03;7400863;19;19919;-76
2023/08/06 08:42:32;;;;;;;5.05;2.60;;;;;;;18.48;79.19;100670.66;7400398;19;19958;-76
2023/08/06 08:45:01;;;;;;;4.32;3.03;;;;;;;18.55;79.27;100673.31;7399452;19;19919;-76
2023/08/06 08:47:30;;;;;;;2.75;2.50;;;;;;;18.62;78.55;100662.28;7400384;19;19959;-77
2023/08/06 08:50:00;;;;;;;4.75;2.03;;;;;;;18.65;78.43;100667.28;7399856;19;19922;-76
2023/08/06 08:52:34;;;;;;;4.53;2.33;;;;;;;18.65;78.00;100665.38;7400594;19;19923;-76
2023/08/06 08:55:04;;;;;;;4.00;2.20;;;;;;;18.67;77.51;100671.44;7400267;19;19939;-77
2023/08/06 08:57:33;;;;;;;3.10;1.92;;;;;;;18.68;77.72;100667.63;7400441;19;19996;-76
2023/08/06 09:00:02;;;;;;;4.22;1.85;;;;;;;18.66;77.97;100664.31;7399972;19;19911;-77
2023/08/06 09:02:32;;;;;;;4.55;1.70;;;;;;;18.65;76.89;100662.66;7399890;19;19915;-77
2023/08/06 09:05:02;;;;;;;2.38;1.90;;;;;;;18.66;76.87;100667.03;7399264;19;19924;-77
2023/08/06 09:07:37;;;;;;;3.22;2.15;;;;;;;18.65;77.24;100672.72;7399091;19;19997;-77
2023/08/06 09:10:09;;;;;;;3.55;1.98;;;;;;;18.71;76.69;100671.81;7399966;19;19927;-77
2023/08/06 09:12:38;;;;;;;2.72;1.67;;;;;;;18.76;77.00;100664.56;7399871;19;19914;-77
2023/08/06 09:15:07;;;;;;;1.70;1.20;;;;;;;18.82;75.94;100673.69;7399918;19;19919;-77
2023/08/06 09:17:36;;;;;;;1.90;1.52;;;;;;;18.88;76.01;100670.88;7400342;19;19918;-77
2023/08/06 09:20:13;;;;;;;2.38;1.15;;;;;;;18.92;75.20;100669.34;7399528;19;19954;-77
2023/08/06 09:22:45;;;;;;;1.38;1.08;;;;;;;19.01;73.82;100667.91;7399570;19;19919;-77
2023/08/06 09:25:13;;;;;;;1.42;1.15;;;;;;;19.09;73.24;100672.19;7398751;19;20251;-76
2023/08/06 09:27:42;;;;;;;2.00;1.38;;;;;;;19.21;72.15;100681.19;7399361;19;19914;-77
2023/08/06 09:30:11;;;;;;;1.40;1.27;;;;;;;19.32;71.69;100679.53;7399203;19;19919;-77
2023/08/06 09:32:51;;;;;;;2.88;1.15;;;;;;;19.41;70.30;100678.13;7399235;19;20258;-76
2023/08/06 09:35:20;;;;;;;2.30;1.10;;;;;;;19.52;71.40;100677.28;7399575;19;19946;-77
2023/08/06 09:37:51;;;;;;;1.40;1.10;;;;;;;19.64;69.02;100686.28;7399327;19;19927;-77
2023/08/06 09:40:28;;;;;;;1.58;1.27;;;;;;;19.73;68.84;100682.09;7399088;19;20329;-77
2023/08/06 09:42:57;;;;;;;5.88;1.35;;;;;;;19.84;69.55;100675.78;7398820;19;19929;-77
2023/08/06 09:45:32;;;;;;;1.40;1.10;;;;;;;19.91;68.03;100687.41;7397912;19;19919;-77
2023/08/06 09:48:01;;;;;;;2.00;1.15;;;;;;;20.01;67.95;100689.53;7399182;19;19922;-76
2023/08/06 09:50:33;;;;;;;2.03;1.27;;;;;;;20.10;67.60;100687.22;7401065;19;19926;-77
2023/08/06 09:53:04;;;;;;;2.47;1.33;;;;;;;20.18;66.52;100684.09;7400007;19;19959;-77
2023/08/06 09:55:34;;;;;;;1.50;1.23;;;;;;;20.26;66.06;100680.97;7398840;19;19914;-77
2023/08/06 09:58:03;;;;;;;2.30;1.23;;;;;;;20.36;66.00;100687.47;7396452;19;19922;-77
2023/08/06 10:00:33;;;;;;;1.80;1.10;;;;;;;20.46;67.77;100686.00;7398156;19;19922;-77
2023/08/06 10:03:04;;;;;;;1.88;1.58;;;;;;;20.57;67.22;100690.59;7399062;19;19914;-78
2023/08/06 10:05:34;;;;;;;2.22;0.80;;;;;;;20.60;65.86;100684.63;7396932;19;19914;-76
2023/08/06 10:08:08;;;;;;;1.55;1.02;;;;;;;20.63;64.52;100686.84;7396185;19;20287;-77
2023/08/06 10:10:37;;;;;;;2.60;1.40;;;;;;;20.70;65.92;100685.63;7397910;19;20253;-77
2023/08/06 10:13:09;;;;;;;2.47;1.30;;;;;;;20.77;65.02;100689.03;7398120;19;19918;-77
2023/08/06 10:15:39;;;;;;;3.45;1.40;;;;;;;20.81;64.62;100687.47;7397393;19;19918;-77
2023/08/06 10:18:09;;;;;;;2.15;0.98;;;;;;;20.92;65.36;100691.22;7397676;19;19918;-77
2023/08/06 10:20:38;;;;;;;2.00;1.40;;;;;;;20.93;64.20;100692.00;7398349;19;19926;-77
2023/08/06 10:23:09;;;;;;;3.65;1.55;;;;;;;21.00;63.92;100689.94;7397334;19;19918;-76
2023/08/06 10:25:42;;;;;;;1.70;1.40;;;;;;;20.97;64.50;100690.47;7396701;19;19919;-77
2023/08/06 10:28:13;;;;;;;2.35;1.38;;;;;;;20.99;64.65;100693.75;7397365;19;19935;-77
2023/08/06 10:30:46;;;;;;;2.08;1.55;;;;;;;20.93;62.77;100694.75;7397151;19;19954;-76
2023/08/06 10:33:16;;;;;;;2.60;1.27;;;;;;;21.10;63.17;100693.66;7397319;19;19932;-77
2023/08/06 10:35:49;;;;;;;1.50;1.02;;;;;;;21.31;62.83;100681.16;7396706;19;19925;-76
2023/08/06 10:38:21;;;;;;;1.30;1.10;;;;;;;21.53;61.40;100682.00;7396979;19;19922;-76
2023/08/06 10:40:52;;;;;;;2.13;1.20;;;;;;;21.74;61.97;100683.09;7397145;19;19949;-76
2023/08/06 10:43:31;;;;;;;2.58;1.20;;;;;;;21.83;59.88;100678.00;7400647;19;19923;-77
2023/08/06 10:46:26;;;;;;;1.75;0.85;;;;;;;21.64;61.43;100681.06;7401400;19;19965;-76
2023/08/06 10:48:54;;;;;;;1.48;1.20;;;;;;;21.49;62.14;100682.75;7403608;19;19951;-77
2023/08/06 10:51:23;;;;;;;1.50;1.20;;;;;;;21.42;62.59;100680.19;7403455;19;20316;-77
2023/08/06 10:53:54;;;;;;;2.25;1.08;;;;;;;21.51;62.00;100673.19;7403818;19;19946;-77
2023/08/06 10:56:25;;;;;;;1.60;1.00;;;;;;;21.70;62.74;100671.78;7403800;19;20313;-76
2023/08/06 10:58:56;;;;;;;1.50;1.10;;;;;;;21.80;60.72;100675.75;7403733;19;19915;-76
2023/08/06 11:01:25;;;;;;;2.55;1.35;;;;;;;21.82;61.92;100677.16;7404285;19;20641;-77
2023/08/06 11:03:54;;;;;;;1.63;1.15;;;;;;;22.11;61.01;100670.41;7403680;19;19923;-77
2023/08/06 11:06:26;;;;;;;2.80;1.27;;;;;;;22.18;58.91;100668.28;7401716;19;19954;-76
2023/08/06 11:08:57;;;;;;;2.22;1.30;;;;;;;22.40;59.21;100670.13;7403280;19;19915;-76
2023/08/06 11:11:26;;;;;;;2.65;1.10;;;;;;;22.55;58.44;100671.13;7403037;19;20275;-76
2023/08/06 11:13:55;;;;;;;2.40;1.15;;;;;;;22.48;57.45;100664.16;7403087;19;19930;-76
2023/08/06 11:16:25;;;;;;;3.83;1.00;;;;;;;22.67;57.51;100665.47;7402871;19;19943;-76
2023/08/06 11:18:56;;;;;;;1.50;1.23;;;;;;;22.87;57.62;100664.81;7402958;19;19922;-76
2023/08/06 11:21:25;;;;;;;1.50;1.02;;;;;;;22.71;56.75;100658.38;7402652;19;19969;-77
2023/08/06 11:23:56;;;;;;;2.83;1.20;;;;;;;22.63;57.18;100656.09;7402887;19;19919;-76
2023/08/06 11:26:27;;;;;;;1.75;1.10;;;;;;;22.48;57.46;100653.19;7401160;19;20439;-76
2023/08/06 11:28:56;;;;;;;1.55;1.00;;;;;;;22.68;58.15;100652.56;7403184;19;20278;-76
2023/08/06 11:31:25;;;;;;;1.83;1.20;;;;;;;22.67;56.98;100650.91;7402782;19;19983;-77
2023/08/06 11:33:53;;;;;;;1.52;0.93;;;;;;;22.88;57.52;100650.81;7402540;19;20383;-77
2023/08/06 11:36:32;;;;;;;9.07;1.33;;;;;;;23.21;57.71;100657.91;7402091;19;19931;-76